createdAt,value
2023-04-21T00:00:51.815Z,11.32
2023-04-21T00:03:21.102Z,11.45
2023-04-21T00:05:48.660Z,11.57
2023-04-21T00:08:15.711Z,11.52
2023-04-21T00:10:42.567Z,11.85
2023-04-21T00:13:09.186Z,11.70
2023-04-21T00:15:36.059Z,12.27
2023-04-21T00:18:03.718Z,12.00
2023-04-21T00:20:31.692Z,12.75
2023-04-21T00:22:59.130Z,12.35
2023-04-21T00:25:26.007Z,12.13
2023-04-21T00:27:52.646Z,13.63
2023-04-21T00:30:19.209Z,14.07
2023-04-21T00:32:45.748Z,14.40
2023-04-21T00:35:12.337Z,13.88
2023-04-21T00:37:40.241Z,15.05
2023-04-21T00:40:10.062Z,13.85
2023-04-21T00:42:36.681Z,14.90
2023-04-21T00:45:04.765Z,14.38
2023-04-21T00:47:31.594Z,14.23
2023-04-21T00:49:59.010Z,15.23
2023-04-21T00:52:26.610Z,15.07
2023-04-21T00:54:54.027Z,15.00
2023-04-21T00:57:20.926Z,15.32
2023-04-21T00:59:47.995Z,15.25
2023-04-21T01:02:16.658Z,16.42
2023-04-21T01:04:45.678Z,15.13
2023-04-21T01:07:12.784Z,16.48
2023-04-21T01:09:39.360Z,15.85
2023-04-21T01:12:09.930Z,16.00
2023-04-21T01:14:38.156Z,16.08
2023-04-21T01:17:08.082Z,16.60
2023-04-21T01:19:41.943Z,17.77
2023-04-21T01:22:12.804Z,17.08
2023-04-21T01:24:45.429Z,17.55
2023-04-21T01:27:14.877Z,17.17
2023-04-21T01:29:43.613Z,17.40
2023-04-21T01:32:12.658Z,17.08
2023-04-21T01:34:40.874Z,17.27
2023-04-21T01:37:09.506Z,17.60
2023-04-21T01:39:43.957Z,18.27
2023-04-21T01:42:11.061Z,18.27
2023-04-21T01:44:38.575Z,18.73
2023-04-21T01:47:05.266Z,18.48
2023-04-21T01:49:32.280Z,18.85
2023-04-21T01:51:58.833Z,19.92
2023-04-21T01:54:25.543Z,19.85
2023-04-21T01:56:52.113Z,20.02
2023-04-21T01:59:18.953Z,20.58
2023-04-21T02:01:45.794Z,20.20
2023-04-21T02:04:12.415Z,20.40
2023-04-21T02:06:39.009Z,20.63
2023-04-21T02:09:05.558Z,20.02
2023-04-21T02:11:32.130Z,20.33
2023-04-21T02:13:58.664Z,20.00
2023-04-21T02:16:28.537Z,21.30
2023-04-21T02:19:06.210Z,20.98
2023-04-21T02:21:32.763Z,21.48
2023-04-21T02:23:59.377Z,21.05
2023-04-21T02:26:26.023Z,20.83
2023-04-21T02:28:52.528Z,21.50
2023-04-21T02:31:19.093Z,22.27
2023-04-21T02:33:46.079Z,21.05
2023-04-21T02:36:13.171Z,21.17
2023-04-21T02:38:39.862Z,22.90
2023-04-21T02:41:06.399Z,22.90
2023-04-21T02:43:32.885Z,22.92
2023-04-21T02:45:59.425Z,23.17
2023-04-21T02:48:26.969Z,23.17
2023-04-21T02:50:53.744Z,24.00
2023-04-21T02:53:21.111Z,24.35
2023-04-21T02:55:48.180Z,25.30
2023-04-21T02:58:15.153Z,24.73
2023-04-21T03:00:41.878Z,24.23
2023-04-21T03:03:08.639Z,24.80
2023-04-21T03:05:35.403Z,25.40
2023-04-21T03:08:02.038Z,24.98
2023-04-21T03:10:28.687Z,24.60
2023-04-21T03:12:56.357Z,26.58
2023-04-21T03:15:23.048Z,26.33
2023-04-21T03:17:49.810Z,25.45
2023-04-21T03:20:17.107Z,26.15
2023-04-21T03:22:43.714Z,24.80
2023-04-21T03:25:11.421Z,24.85
2023-04-21T03:27:38.088Z,26.13
2023-04-21T03:30:05.472Z,26.23
2023-04-21T03:32:32.033Z,27.38
2023-04-21T03:34:58.675Z,25.00
2023-04-21T03:37:25.225Z,26.50
2023-04-21T03:39:51.873Z,27.45
2023-04-21T03:42:18.456Z,27.33
2023-04-21T03:44:44.983Z,27.63
2023-04-21T03:47:11.497Z,27.35
2023-04-21T03:49:38.128Z,26.98
2023-04-21T03:52:04.981Z,28.00
2023-04-21T03:54:31.534Z,28.65
2023-04-21T03:56:58.117Z,27.27
2023-04-21T03:59:24.678Z,28.08
2023-04-21T04:01:51.229Z,28.17
2023-04-21T04:04:17.902Z,28.73
2023-04-21T04:06:44.642Z,27.60
2023-04-21T04:09:11.257Z,28.65
2023-04-21T04:11:37.782Z,27.45
2023-04-21T04:14:04.290Z,29.27
2023-04-21T04:16:31.149Z,27.90
2023-04-21T04:18:57.780Z,29.35
2023-04-21T04:21:24.290Z,28.25
2023-04-21T04:23:54.159Z,29.98
2023-04-21T04:26:22.756Z,27.55
2023-04-21T04:28:49.360Z,28.88
2023-04-21T04:31:17.335Z,27.20
2023-04-21T04:33:44.341Z,30.00
2023-04-21T04:36:12.116Z,28.83
2023-04-21T04:38:38.772Z,28.38
2023-04-21T04:41:06.318Z,29.13
2023-04-21T04:43:41.964Z,28.60
2023-04-21T04:46:13.566Z,28.90
2023-04-21T04:48:40.748Z,29.17
2023-04-21T04:51:07.579Z,30.15
2023-04-21T04:53:34.233Z,28.02
2023-04-21T04:56:00.834Z,18.05
2023-04-21T04:58:27.420Z,22.75
2023-04-21T05:00:54.438Z,22.10
2023-04-21T05:03:21.227Z,20.75
2023-04-21T05:05:47.996Z,19.88
2023-04-21T05:08:16.497Z,20.95
2023-04-21T05:10:44.503Z,21.42
2023-04-21T05:13:11.090Z,23.58
2023-04-21T05:15:37.671Z,24.17
2023-04-21T05:18:04.358Z,23.52
2023-04-21T05:20:31.035Z,23.10
2023-04-21T05:22:57.647Z,23.40
2023-04-21T05:25:24.342Z,24.17
2023-04-21T05:27:50.997Z,23.58
2023-04-21T05:30:17.539Z,20.15
2023-04-21T05:32:44.424Z,21.88
2023-04-21T05:35:11.124Z,22.70
2023-04-21T05:37:37.700Z,21.77
2023-04-21T05:40:04.527Z,23.60
2023-04-21T05:42:31.255Z,22.40
2023-04-21T05:44:58.270Z,22.58
2023-04-21T05:47:24.947Z,21.02
2023-04-21T05:49:53.930Z,19.90
2023-04-21T05:52:23.753Z,19.65
2023-04-21T05:54:50.527Z,21.15
2023-04-21T05:57:17.938Z,21.20
2023-04-21T05:59:44.583Z,22.02
2023-04-21T06:02:12.234Z,21.33
2023-04-21T06:04:38.948Z,21.42
2023-04-21T06:07:07.338Z,20.83
2023-04-21T06:09:35.357Z,21.42
2023-04-21T06:12:02.767Z,21.52
2023-04-21T06:14:29.348Z,21.05
2023-04-21T06:16:56.058Z,21.30
2023-04-21T06:19:22.667Z,20.63
2023-04-21T06:21:49.292Z,20.58
2023-04-21T06:24:16.311Z,19.90
2023-04-21T06:26:42.976Z,19.83
2023-04-21T06:29:09.555Z,19.55
2023-04-21T06:31:36.195Z,19.23
2023-04-21T06:34:02.804Z,19.70
2023-04-21T06:36:29.407Z,19.73
2023-04-21T06:38:56.204Z,17.77
2023-04-21T06:41:24.715Z,18.20
2023-04-21T06:43:51.528Z,18.50
2023-04-21T06:46:18.438Z,17.83
2023-04-21T06:48:45.056Z,17.48
2023-04-21T06:51:11.654Z,17.83
2023-04-21T06:53:38.439Z,17.25
2023-04-21T06:56:05.289Z,17.38
2023-04-21T06:58:32.012Z,18.95
2023-04-21T07:00:59.742Z,17.00
2023-04-21T07:03:26.460Z,17.55
2023-04-21T07:05:53.231Z,17.05
2023-04-21T07:08:19.786Z,18.75
2023-04-21T07:10:46.407Z,18.52
2023-04-21T07:13:12.968Z,16.48
2023-04-21T07:15:39.608Z,16.60
2023-04-21T07:18:06.255Z,16.35
2023-04-21T07:20:32.810Z,16.63
2023-04-21T07:22:59.352Z,15.38
2023-04-21T07:25:26.196Z,14.18
2023-04-21T07:27:52.883Z,13.70
2023-04-21T07:30:19.722Z,13.77
2023-04-21T07:32:46.896Z,14.00
2023-04-21T07:35:13.854Z,13.30
2023-04-21T07:37:40.668Z,12.82
2023-04-21T07:40:08.984Z,11.80
2023-04-21T07:42:35.615Z,10.90
2023-04-21T07:45:02.730Z,11.05
2023-04-21T07:47:29.509Z,10.60
2023-04-21T07:49:56.436Z,9.95
2023-04-21T07:52:23.275Z,11.30
2023-04-21T07:54:50.641Z,11.80
2023-04-21T07:57:17.489Z,10.52
2023-04-21T07:59:44.383Z,9.43
2023-04-21T08:02:11.045Z,9.45
2023-04-21T08:04:38.138Z,9.40
2023-04-21T08:07:05.448Z,11.20
2023-04-21T08:09:32.248Z,9.80
2023-04-21T08:11:58.953Z,9.82
2023-04-21T08:14:26.952Z,8.57
2023-04-21T08:16:56.562Z,8.35
2023-04-21T08:19:23.664Z,8.20
2023-04-21T08:21:50.308Z,8.00
2023-04-21T08:24:16.958Z,8.30
2023-04-21T08:26:43.700Z,8.95
2023-04-21T08:29:10.834Z,7.75
2023-04-21T08:31:37.604Z,7.60
2023-04-21T08:34:04.415Z,7.35
2023-04-21T08:36:31.986Z,7.65
2023-04-21T08:38:59.362Z,7.72
2023-04-21T08:41:27.211Z,8.63
2023-04-21T08:43:54.027Z,7.82
2023-04-21T08:46:21.680Z,8.27
2023-04-21T08:48:48.286Z,7.30
2023-04-21T08:51:23.825Z,7.28
2023-04-21T08:53:50.617Z,7.00
2023-04-21T08:56:17.250Z,7.60
2023-04-21T08:58:43.805Z,8.60
2023-04-21T09:01:11.199Z,8.05
2023-04-21T09:03:38.393Z,7.78
2023-04-21T09:06:07.821Z,7.30
2023-04-21T09:08:38.122Z,8.00
2023-04-21T09:11:04.762Z,8.02
2023-04-21T09:13:36.989Z,8.02
2023-04-21T09:16:08.419Z,7.07
2023-04-21T09:18:40.177Z,6.43
2023-04-21T09:21:15.992Z,6.13
2023-04-21T09:23:47.362Z,6.40
2023-04-21T09:26:14.396Z,8.00
2023-04-21T09:28:42.993Z,7.00
2023-04-21T09:31:18.116Z,6.30
2023-04-21T09:33:57.561Z,6.28
2023-04-21T09:36:28.385Z,5.97
2023-04-21T09:39:12.862Z,6.82
2023-04-21T09:41:41.982Z,6.78
2023-04-21T09:44:08.680Z,6.75
2023-04-21T09:46:37.141Z,6.68
2023-04-21T09:49:04.940Z,6.95
2023-04-21T09:51:56.239Z,6.70
2023-04-21T09:54:29.764Z,7.10
2023-04-21T09:57:01.717Z,6.93
2023-04-21T09:59:40.786Z,7.18
2023-04-21T10:02:09.118Z,6.30
2023-04-21T10:04:38.659Z,6.90
2023-04-21T10:07:06.688Z,7.60
2023-04-21T10:09:54.827Z,6.40
2023-04-21T10:12:22.846Z,5.82
2023-04-21T10:14:56.377Z,6.10
2023-04-21T10:17:25.282Z,5.93
2023-04-21T10:19:59.761Z,6.38
2023-04-21T10:22:28.834Z,6.68
2023-04-21T10:24:57.033Z,6.68
2023-04-21T10:27:32.653Z,6.10
2023-04-21T10:29:59.773Z,6.10
2023-04-21T10:32:42.813Z,6.68
2023-04-21T10:35:17.929Z,6.50
2023-04-21T10:37:48.893Z,6.57
2023-04-21T10:40:44.258Z,6.65
2023-04-21T10:43:49.629Z,5.70
2023-04-21T10:46:37.359Z,5.70
2023-04-21T10:49:28.829Z,5.93
2023-04-21T10:51:58.514Z,5.50
2023-04-21T10:54:49.998Z,5.70
2023-04-21T10:57:18.796Z,5.20
2023-04-21T10:59:46.654Z,5.22
2023-04-21T11:02:15.143Z,5.18
2023-04-21T11:04:47.845Z,4.60
2023-04-21T11:07:20.010Z,4.53
2023-04-21T11:09:48.183Z,4.28
2023-04-21T11:12:17.964Z,3.95
2023-04-21T11:14:48.064Z,3.50
2023-04-21T11:17:20.212Z,3.50
2023-04-21T11:19:54.046Z,3.38
2023-04-21T11:22:26.452Z,3.53
2023-04-21T11:27:26.870Z,3.22
2023-04-21T11:29:53.520Z,3.17
2023-04-21T11:32:21.465Z,2.97
2023-04-21T11:34:48.197Z,3.03
2023-04-21T11:37:23.435Z,3.20
2023-04-21T11:39:50.081Z,2.55
2023-04-21T11:42:22.844Z,3.35
2023-04-21T11:44:49.421Z,2.83
2023-04-21T11:47:18.311Z,2.85
2023-04-21T11:49:50.578Z,3.08
2023-04-21T11:52:28.751Z,3.17
2023-04-21T11:55:06.539Z,2.78
2023-04-21T11:57:34.121Z,2.67
2023-04-21T12:00:08.866Z,2.60
2023-04-21T12:02:35.816Z,2.70
2023-04-21T12:05:04.445Z,3.20
2023-04-21T12:07:36.520Z,2.58
2023-04-21T12:15:04.587Z,2.33
2023-04-21T12:17:44.490Z,2.10
2023-04-21T12:20:12.025Z,2.30
2023-04-21T12:22:38.614Z,2.80
2023-04-21T12:25:05.892Z,2.78
2023-04-21T12:27:32.559Z,2.30
2023-04-21T12:29:59.064Z,2.50
2023-04-21T12:32:26.314Z,2.10
2023-04-21T12:34:52.996Z,2.10
2023-04-21T12:37:19.595Z,2.13
2023-04-21T12:39:46.147Z,2.53
2023-04-21T12:42:12.713Z,2.75
2023-04-21T12:44:39.576Z,2.40
2023-04-21T12:47:06.397Z,2.60
2023-04-21T12:49:32.969Z,2.60
2023-04-21T12:51:59.740Z,2.85
2023-04-21T12:54:26.299Z,2.42
2023-04-21T12:56:52.885Z,2.45
2023-04-21T12:59:19.457Z,2.33
2023-04-21T13:01:46.142Z,1.92
2023-04-21T13:04:13.105Z,2.20
2023-04-21T13:06:40.095Z,2.70
2023-04-21T13:09:06.843Z,2.65
2023-04-21T13:11:33.680Z,2.08
2023-04-21T13:14:00.299Z,2.08
2023-04-21T13:16:28.619Z,2.40
2023-04-21T13:18:56.793Z,2.13
2023-04-21T13:21:23.321Z,2.08
2023-04-21T13:23:49.936Z,2.00
2023-04-21T13:26:17.318Z,2.08
2023-04-21T13:28:44.080Z,1.73
2023-04-21T13:31:10.816Z,1.75
2023-04-21T13:33:37.880Z,1.50
2023-04-21T13:36:04.779Z,1.60
2023-04-21T13:38:32.156Z,1.70
2023-04-21T13:40:58.910Z,1.60
2023-04-21T13:43:25.603Z,1.58
2023-04-21T13:45:52.386Z,1.70
2023-04-21T13:48:24.153Z,1.80
2023-04-21T13:50:51.785Z,1.52
2023-04-21T13:53:20.645Z,1.30
2023-04-21T13:55:47.959Z,1.52
2023-04-21T13:58:16.836Z,1.20
2023-04-21T14:00:43.935Z,1.40
2023-04-21T14:03:11.675Z,2.25
2023-04-21T14:05:38.991Z,1.88
2023-04-21T14:08:06.117Z,1.80
2023-04-21T14:10:32.861Z,2.40
2023-04-21T14:12:59.492Z,1.50
2023-04-21T14:15:26.345Z,1.67
2023-04-21T14:17:53.638Z,1.48
2023-04-21T14:20:20.517Z,1.60
2023-04-21T14:22:47.341Z,1.80
2023-04-21T14:25:13.947Z,1.40
2023-04-21T14:27:40.465Z,2.45
2023-04-21T14:30:07.795Z,3.70
2023-04-21T14:32:34.411Z,3.17
2023-04-21T14:35:03.355Z,2.10
2023-04-21T14:37:30.244Z,3.00
2023-04-21T14:39:56.764Z,1.98
2023-04-21T14:42:23.418Z,1.85
2023-04-21T14:44:50.105Z,2.80
2023-04-21T14:47:16.835Z,2.00
2023-04-21T14:49:43.588Z,2.15
2023-04-21T14:52:10.205Z,2.70
2023-04-21T14:54:36.848Z,1.80
2023-04-21T14:57:19.009Z,1.30
2023-04-21T14:59:52.148Z,1.77
2023-04-21T15:02:19.601Z,1.33
2023-04-21T15:04:46.390Z,1.63
2023-04-21T15:07:13.528Z,1.52
2023-04-21T15:09:41.176Z,1.73
2023-04-21T15:12:07.756Z,1.85
2023-04-21T15:14:34.496Z,1.30
2023-04-21T15:17:01.213Z,1.60
2023-04-21T15:19:27.770Z,1.88
2023-04-21T15:21:54.310Z,1.50
2023-04-21T15:24:20.861Z,1.70
2023-04-21T15:26:47.400Z,1.55
2023-04-21T15:29:14.129Z,1.48
2023-04-21T15:31:41.101Z,1.50
2023-04-21T15:34:08.035Z,1.30
2023-04-21T15:36:34.661Z,1.15
2023-04-21T15:39:01.293Z,1.10
2023-04-21T15:41:29.610Z,1.02
2023-04-21T15:43:56.269Z,1.13
2023-04-21T15:46:23.066Z,1.50
2023-04-21T15:48:49.799Z,1.52
2023-04-21T15:51:16.706Z,1.42
2023-04-21T15:53:47.644Z,1.20
2023-04-21T15:56:17.846Z,1.30
2023-04-21T15:58:44.687Z,1.60
2023-04-21T16:01:11.578Z,1.33
2023-04-21T16:03:40.296Z,1.33
2023-04-21T16:06:07.599Z,1.52
2023-04-21T16:08:34.409Z,1.20
2023-04-21T16:11:01.317Z,1.40
2023-04-21T16:13:28.015Z,1.52
2023-04-21T16:15:54.630Z,1.30
2023-04-21T16:18:21.605Z,1.20
2023-04-21T16:20:48.394Z,1.60
2023-04-21T16:23:15.452Z,1.33
2023-04-21T16:25:42.760Z,1.48
2023-04-21T16:28:09.807Z,1.48
2023-04-21T16:30:36.621Z,1.60
2023-04-21T16:33:03.264Z,1.80
2023-04-21T16:35:29.955Z,1.60
2023-04-21T16:37:56.627Z,1.67
2023-04-21T16:40:24.328Z,1.65
2023-04-21T16:42:51.121Z,1.38
2023-04-21T16:45:17.789Z,1.50
2023-04-21T16:47:44.465Z,1.30
2023-04-21T16:50:11.391Z,1.30
2023-04-21T16:52:38.322Z,1.10
2023-04-21T16:55:05.356Z,1.38
2023-04-21T16:57:32.992Z,1.25
2023-04-21T16:59:59.744Z,1.30
2023-04-21T17:02:26.485Z,1.15
2023-04-21T17:04:53.206Z,1.10
2023-04-21T17:07:19.709Z,1.45
2023-04-21T17:09:46.488Z,1.30
2023-04-21T17:12:13.092Z,1.20
2023-04-21T17:14:40.380Z,1.30
2023-04-21T17:17:07.231Z,1.30
2023-04-21T17:19:33.974Z,1.13
2023-04-21T17:22:00.604Z,1.10
2023-04-21T17:24:29.546Z,1.10
2023-04-21T17:26:59.787Z,1.30
2023-04-21T17:29:26.999Z,1.40
2023-04-21T17:31:53.768Z,1.25
2023-04-21T17:34:20.504Z,1.50
2023-04-21T17:36:47.122Z,1.48
2023-04-21T17:39:14.147Z,1.42
2023-04-21T17:41:42.000Z,1.30
2023-04-21T17:44:08.615Z,1.35
2023-04-21T17:46:35.404Z,1.40
2023-04-21T17:49:02.048Z,2.65
2023-04-21T17:51:28.791Z,2.38
2023-04-21T17:53:55.328Z,17.98
2023-04-21T17:56:22.435Z,4.70
2023-04-21T17:58:48.959Z,9.32
2023-04-21T18:01:15.545Z,6.90
2023-04-21T18:03:43.333Z,4.82
2023-04-21T18:06:11.299Z,2.40
2023-04-21T18:08:38.388Z,3.13
2023-04-21T18:11:06.209Z,2.20
2023-04-21T18:13:32.721Z,9.52
2023-04-21T18:15:59.297Z,2.30
2023-04-21T18:18:26.230Z,6.53
2023-04-21T18:20:52.948Z,2.00
2023-04-21T18:23:19.478Z,1.88
2023-04-21T18:25:46.599Z,2.00
2023-04-21T18:28:13.422Z,2.10
2023-04-21T18:30:40.197Z,5.68
2023-04-21T18:33:06.984Z,2.35
2023-04-21T18:35:34.216Z,5.13
2023-04-21T18:38:01.228Z,2.17
2023-04-21T18:40:28.046Z,2.45
2023-04-21T18:42:54.694Z,2.95
2023-04-21T18:45:21.260Z,3.30
2023-04-21T18:47:47.816Z,2.22
2023-04-21T18:50:14.452Z,2.60
2023-04-21T18:52:41.245Z,2.33
2023-04-21T18:55:08.748Z,2.33
2023-04-21T18:57:35.417Z,2.38
2023-04-21T19:00:02.123Z,2.17
2023-04-21T19:02:30.041Z,2.20
2023-04-21T19:04:56.720Z,2.50
2023-04-21T19:07:23.225Z,2.50
2023-04-21T19:09:49.908Z,2.55
2023-04-21T19:12:16.522Z,2.22
2023-04-21T19:14:47.628Z,2.33
2023-04-21T19:17:15.124Z,2.45
2023-04-21T19:19:42.242Z,2.50
2023-04-21T19:22:08.767Z,2.30
2023-04-21T19:24:35.800Z,2.22
2023-04-21T19:27:03.778Z,2.30
2023-04-21T19:29:31.278Z,2.75
2023-04-21T19:31:58.674Z,2.40
2023-04-21T19:34:25.385Z,2.60
2023-04-21T19:36:52.911Z,2.42
2023-04-21T19:39:19.926Z,2.50
2023-04-21T19:41:46.474Z,2.60
2023-04-21T19:44:13.058Z,2.75
2023-04-21T19:46:42.847Z,2.50
2023-04-21T19:49:13.047Z,2.90
2023-04-21T19:51:41.065Z,2.70
2023-04-21T19:54:11.363Z,2.22
2023-04-21T19:56:39.476Z,2.80
2023-04-21T19:59:06.465Z,2.53
2023-04-21T20:01:33.987Z,2.72
2023-04-21T20:04:01.305Z,2.58
2023-04-21T20:06:28.737Z,2.38
2023-04-21T20:08:55.891Z,2.78
2023-04-21T20:11:23.308Z,2.33
2023-04-21T20:13:50.491Z,2.80
2023-04-21T20:16:20.205Z,2.67
2023-04-21T20:18:46.943Z,2.53
2023-04-21T20:21:13.586Z,2.50
2023-04-21T20:23:40.238Z,2.70
2023-04-21T20:26:06.739Z,2.75
2023-04-21T20:28:33.356Z,2.47
2023-04-21T20:31:00.125Z,2.47
2023-04-21T20:33:27.409Z,2.35
2023-04-21T20:35:54.069Z,3.00
2023-04-21T20:38:23.839Z,2.65
2023-04-21T20:40:52.426Z,2.47
2023-04-21T20:43:19.244Z,3.20
2023-04-21T20:45:47.488Z,2.90
2023-04-21T20:48:14.101Z,2.55
2023-04-21T20:50:42.224Z,2.58
2023-04-21T20:53:10.109Z,2.42
2023-04-21T20:55:36.797Z,2.63
2023-04-21T20:58:04.620Z,2.38
2023-04-21T21:00:33.038Z,2.80
2023-04-21T21:02:59.950Z,2.67
2023-04-21T21:05:30.521Z,2.70
2023-04-21T21:07:57.196Z,3.08
2023-04-21T21:10:23.778Z,3.47
2023-04-21T21:12:50.383Z,3.80
2023-04-21T21:15:17.052Z,3.00
2023-04-21T21:17:43.617Z,3.80
2023-04-21T21:20:10.807Z,3.40
2023-04-21T21:22:37.375Z,3.45
2023-04-21T21:25:04.114Z,4.03
2023-04-21T21:27:30.755Z,3.88
2023-04-21T21:29:57.272Z,3.85
2023-04-21T21:32:23.840Z,3.70
2023-04-21T21:34:52.156Z,4.13
2023-04-21T21:37:19.248Z,3.35
2023-04-21T21:39:45.786Z,3.78
2023-04-21T21:42:12.359Z,3.70
2023-04-21T21:44:38.961Z,3.60
2023-04-21T21:47:05.724Z,3.50
2023-04-21T21:49:32.560Z,3.90
2023-04-21T21:51:59.213Z,3.78
2023-04-21T21:54:25.908Z,3.97
2023-04-21T21:56:52.538Z,4.75
2023-04-21T21:59:19.168Z,4.15
2023-04-21T22:01:45.762Z,4.40
2023-04-21T22:04:12.442Z,4.60
2023-04-21T22:06:39.156Z,3.90
2023-04-21T22:09:06.297Z,4.60
2023-04-21T22:11:32.886Z,5.18
2023-04-21T22:14:07.993Z,4.45
2023-04-21T22:16:42.974Z,4.22
2023-04-21T22:19:10.567Z,3.72
2023-04-21T22:21:37.137Z,4.05
2023-04-21T22:24:04.014Z,3.85
2023-04-21T22:26:31.367Z,4.00
2023-04-21T22:28:57.887Z,4.00
2023-04-21T22:31:24.474Z,4.15
2023-04-21T22:33:51.046Z,4.05
2023-04-21T22:36:17.597Z,4.13
2023-04-21T22:38:45.733Z,4.50
2023-04-21T22:41:13.461Z,4.25
2023-04-21T22:43:39.982Z,4.18
2023-04-21T22:46:07.110Z,4.22
2023-04-21T22:48:36.194Z,4.60
2023-04-21T22:51:03.657Z,3.97
2023-04-21T22:53:30.865Z,4.20
2023-04-21T22:55:57.498Z,4.32
2023-04-21T22:58:24.517Z,4.25
2023-04-21T23:00:51.737Z,4.43
2023-04-21T23:03:18.531Z,4.32
2023-04-21T23:05:45.245Z,4.10
2023-04-21T23:08:11.894Z,4.35
2023-04-21T23:10:38.457Z,4.93
2023-04-21T23:13:05.338Z,5.07
2023-04-21T23:15:32.211Z,5.28
2023-04-21T23:17:58.915Z,5.25
2023-04-21T23:20:25.698Z,5.03
2023-04-21T23:22:52.401Z,5.55
2023-04-21T23:25:19.007Z,5.57
2023-04-21T23:27:45.665Z,5.47
2023-04-21T23:30:12.802Z,5.30
2023-04-21T23:32:39.641Z,5.28
2023-04-21T23:35:06.814Z,5.30
2023-04-21T23:37:33.655Z,4.88
2023-04-21T23:40:00.191Z,4.57
2023-04-21T23:42:26.765Z,4.63
2023-04-21T23:44:53.460Z,4.68
2023-04-21T23:47:20.559Z,4.63
2023-04-21T23:49:47.155Z,4.43
2023-04-21T23:52:14.975Z,4.90
2023-04-21T23:54:41.533Z,4.57
2023-04-21T23:57:08.144Z,4.88
2023-04-21T23:59:34.751Z,4.63
